createdAt,value
2022-12-08T00:02:21.772Z,99536.81
2022-12-08T00:05:42.901Z,99528.31
2022-12-08T00:09:04.081Z,99531.06
2022-12-08T00:12:07.819Z,99537.63
2022-12-08T00:15:10.368Z,99535.75
2022-12-08T00:18:12.742Z,99534.28
2022-12-08T00:21:15.129Z,99545.13
2022-12-08T00:24:18.325Z,99538.59
2022-12-08T00:27:20.566Z,99543.88
2022-12-08T00:30:22.856Z,99549.38
2022-12-08T00:33:25.506Z,99542.09
2022-12-08T00:36:27.932Z,99552.97
2022-12-08T00:39:30.274Z,99553.63
2022-12-08T00:42:32.597Z,99565.91
2022-12-08T00:45:34.934Z,99569.50
2022-12-08T00:48:37.324Z,99563.25
2022-12-08T00:51:39.607Z,99576.44
2022-12-08T00:54:41.992Z,99574.72
2022-12-08T00:57:44.393Z,99577.84
2022-12-08T01:00:47.651Z,99587.06
2022-12-08T01:03:50.154Z,99581.16
2022-12-08T01:06:52.551Z,99586.03
2022-12-08T01:09:54.907Z,99587.00
2022-12-08T01:12:57.832Z,99584.22
2022-12-08T01:16:00.512Z,99581.72
2022-12-08T01:19:03.915Z,99578.34
2022-12-08T01:22:06.201Z,99588.13
2022-12-08T01:25:09.005Z,99580.97
2022-12-08T01:28:11.319Z,99596.97
2022-12-08T01:31:18.906Z,99599.00
2022-12-08T01:34:21.293Z,99598.84
2022-12-08T01:37:23.601Z,99600.72
2022-12-08T01:40:25.926Z,99602.94
2022-12-08T01:43:52.357Z,99593.19
2022-12-08T01:46:55.105Z,99601.06
2022-12-08T01:49:57.522Z,99609.25
2022-12-08T01:53:09.402Z,99617.50
2022-12-08T01:56:16.635Z,99623.41
2022-12-08T01:59:19.595Z,99615.84
2022-12-08T02:02:32.867Z,99614.13
2022-12-08T02:05:37.920Z,99618.13
2022-12-08T02:08:42.365Z,99618.41
2022-12-08T02:11:44.644Z,99611.66
2022-12-08T02:14:47.140Z,99610.53
2022-12-08T02:18:09.836Z,99620.69
2022-12-08T02:21:14.865Z,99618.66
2022-12-08T02:24:38.761Z,99625.59
2022-12-08T02:28:04.076Z,99630.63
2022-12-08T02:31:18.621Z,99638.06
2022-12-08T02:34:35.868Z,99633.88
2022-12-08T02:38:09.536Z,99638.88
2022-12-08T02:41:39.523Z,99640.38
2022-12-08T02:44:59.510Z,99646.31
2022-12-08T02:48:01.836Z,99650.00
2022-12-08T02:51:04.965Z,99653.50
2022-12-08T02:54:07.405Z,99653.38
2022-12-08T02:57:12.446Z,99663.34
2022-12-08T03:00:17.460Z,99656.78
2022-12-08T03:03:46.204Z,99657.88
2022-12-08T03:06:57.596Z,99660.31
2022-12-08T03:10:11.509Z,99664.06
2022-12-08T03:13:16.775Z,99660.50
2022-12-08T03:16:27.467Z,99667.88
2022-12-08T03:19:34.762Z,99668.69
2022-12-08T03:22:38.329Z,99644.28
2022-12-08T03:25:54.223Z,99676.34
2022-12-08T03:28:57.070Z,99667.31
2022-12-08T03:32:12.214Z,99670.34
2022-12-08T03:35:16.839Z,99682.84
2022-12-08T03:38:19.158Z,99686.50
2022-12-08T03:41:23.067Z,99659.91
2022-12-08T03:44:25.316Z,99685.69
2022-12-08T03:47:27.699Z,99690.59
2022-12-08T03:50:30.116Z,99691.88
2022-12-08T03:53:32.540Z,99690.81
2022-12-08T03:56:37.771Z,99697.06
2022-12-08T03:59:40.245Z,99696.53
2022-12-08T04:02:42.642Z,99694.59
2022-12-08T04:05:44.988Z,99688.28
2022-12-08T04:08:47.608Z,99689.34
2022-12-08T04:11:50.004Z,99691.84
2022-12-08T04:14:52.330Z,99689.38
2022-12-08T04:17:54.573Z,99696.78
2022-12-08T04:20:56.909Z,99707.44
2022-12-08T04:24:01.292Z,99706.16
2022-12-08T04:27:04.034Z,99697.75
2022-12-08T04:30:07.535Z,99707.88
2022-12-08T04:33:10.032Z,99705.28
2022-12-08T04:36:12.522Z,99702.03
2022-12-08T04:39:14.809Z,99715.56
2022-12-08T04:42:17.192Z,99705.78
2022-12-08T04:45:19.662Z,99710.84
2022-12-08T04:48:22.026Z,99716.84
2022-12-08T04:51:24.452Z,99710.56
2022-12-08T04:54:27.155Z,99720.81
2022-12-08T04:57:29.551Z,99713.47
2022-12-08T05:00:31.932Z,99710.56
2022-12-08T05:03:34.227Z,99710.84
2022-12-08T05:06:36.569Z,99712.25
2022-12-08T05:09:38.802Z,99721.81
2022-12-08T05:12:41.163Z,99711.91
2022-12-08T05:15:43.568Z,99715.53
2022-12-08T05:18:46.011Z,99719.78
2022-12-08T05:21:48.374Z,99718.59
2022-12-08T05:24:50.720Z,99717.19
2022-12-08T05:28:01.669Z,99714.50
2022-12-08T05:31:15.180Z,99712.91
2022-12-08T05:34:17.630Z,99740.41
2022-12-08T05:37:20.072Z,99736.97
2022-12-08T05:40:22.408Z,99740.66
2022-12-08T05:43:25.043Z,99734.94
2022-12-08T05:46:27.412Z,99736.19
2022-12-08T05:49:29.871Z,99756.66
2022-12-08T05:52:33.074Z,99752.97
2022-12-08T05:55:35.398Z,99752.59
2022-12-08T05:58:37.749Z,99757.69
2022-12-08T06:01:40.162Z,99759.75
2022-12-08T06:04:42.785Z,99759.75
2022-12-08T06:07:45.211Z,99767.41
2022-12-08T06:10:47.605Z,99775.38
2022-12-08T06:13:50.548Z,99772.84
2022-12-08T06:16:53.011Z,99772.41
2022-12-08T06:19:55.384Z,99771.91
2022-12-08T06:22:57.720Z,99776.56
2022-12-08T06:26:04.191Z,99785.19
2022-12-08T06:29:06.556Z,99780.69
2022-12-08T06:32:09.013Z,99789.31
2022-12-08T06:35:11.512Z,99788.88
2022-12-08T06:38:13.807Z,99793.75
2022-12-08T06:41:16.402Z,99798.75
2022-12-08T06:44:18.784Z,99786.59
2022-12-08T06:47:26.375Z,99811.28
2022-12-08T06:50:29.075Z,99810.72
2022-12-08T06:53:31.386Z,99819.81
2022-12-08T06:56:33.652Z,99827.53
2022-12-08T06:59:35.973Z,99823.50
2022-12-08T07:02:38.515Z,99827.41
2022-12-08T07:05:40.983Z,99827.09
2022-12-08T07:08:43.427Z,99834.94
2022-12-08T07:11:45.738Z,99833.72
2022-12-08T07:14:48.014Z,99826.72
2022-12-08T07:17:54.895Z,99850.50
2022-12-08T07:21:11.394Z,99832.47
2022-12-08T07:24:14.029Z,99853.19
2022-12-08T07:27:16.456Z,99859.44
2022-12-08T07:30:18.906Z,99852.13
2022-12-08T07:33:21.129Z,99858.13
2022-12-08T07:36:23.744Z,99861.09
2022-12-08T07:39:26.121Z,99854.88
2022-12-08T07:42:28.492Z,99844.28
2022-12-08T07:45:31.808Z,99867.84
2022-12-08T07:48:34.385Z,99871.13
2022-12-08T07:51:36.764Z,99868.00
2022-12-08T07:54:39.135Z,99876.94
2022-12-08T07:57:41.548Z,99870.34
2022-12-08T08:00:43.855Z,99868.91
2022-12-08T08:03:46.242Z,99869.44
2022-12-08T08:06:48.636Z,99865.03
2022-12-08T08:09:50.907Z,99874.88
2022-12-08T08:12:53.273Z,99871.63
2022-12-08T08:15:55.621Z,99863.91
2022-12-08T08:18:58.044Z,99882.41
2022-12-08T08:22:00.492Z,99868.03
2022-12-08T08:25:02.767Z,99868.88
2022-12-08T08:28:05.125Z,99874.19
2022-12-08T08:31:07.558Z,99880.19
2022-12-08T08:34:09.855Z,99875.91
2022-12-08T08:37:12.460Z,99878.97
2022-12-08T08:40:15.061Z,99869.91
2022-12-08T08:43:34.465Z,99876.09
2022-12-08T08:46:40.036Z,99882.25
2022-12-08T08:49:42.464Z,99875.25
2022-12-08T08:52:45.307Z,99879.34
2022-12-08T08:55:47.973Z,99881.81
2022-12-08T08:58:52.645Z,99880.72
2022-12-08T09:01:55.342Z,99885.00
2022-12-08T09:04:58.378Z,99887.47
2022-12-08T09:08:00.886Z,99883.53
2022-12-08T09:11:04.357Z,99863.16
2022-12-08T09:14:07.294Z,99880.03
2022-12-08T09:17:09.872Z,99871.97
2022-12-08T09:20:12.335Z,99871.94
2022-12-08T09:23:15.451Z,99874.94
2022-12-08T09:26:17.815Z,99862.00
2022-12-08T09:29:20.308Z,99867.16
2022-12-08T09:32:22.641Z,99869.84
2022-12-08T09:35:24.950Z,99868.41
2022-12-08T09:38:28.484Z,99863.06
2022-12-08T09:41:40.245Z,99859.69
2022-12-08T09:44:57.485Z,99856.53
2022-12-08T09:48:25.071Z,99857.91
2022-12-08T09:51:33.021Z,99853.59
2022-12-08T09:54:36.380Z,99845.22
2022-12-08T09:57:38.764Z,99835.19
2022-12-08T10:00:41.030Z,99830.91
2022-12-08T10:03:43.805Z,99835.63
2022-12-08T10:06:49.662Z,99821.28
2022-12-08T10:10:07.271Z,99823.16
2022-12-08T10:13:23.063Z,99825.66
2022-12-08T10:16:40.111Z,99821.50
2022-12-08T10:19:43.216Z,99826.00
2022-12-08T10:22:47.719Z,99813.50
2022-12-08T10:25:56.730Z,99815.72
2022-12-08T10:29:01.509Z,99809.28
2022-12-08T10:32:13.306Z,99806.06
2022-12-08T10:35:17.394Z,99803.06
2022-12-08T10:38:33.931Z,99787.22
2022-12-08T10:41:37.669Z,99781.84
2022-12-08T10:44:56.413Z,99785.47
2022-12-08T10:48:07.021Z,99778.47
2022-12-08T10:51:23.316Z,99769.53
2022-12-08T10:54:38.437Z,99770.88
2022-12-08T10:57:40.739Z,99769.75
2022-12-08T11:00:43.227Z,99769.50
2022-12-08T11:03:47.243Z,99765.88
2022-12-08T11:06:51.061Z,99758.66
2022-12-08T11:09:58.250Z,99751.84
2022-12-08T11:13:07.273Z,99749.78
2022-12-08T11:16:13.473Z,99750.22
2022-12-08T11:19:20.419Z,99739.78
2022-12-08T11:22:36.346Z,99739.59
2022-12-08T11:25:38.850Z,99733.41
2022-12-08T11:28:41.155Z,99725.06
2022-12-08T11:32:12.391Z,99732.22
2022-12-08T11:35:27.982Z,99713.47
2022-12-08T11:38:30.795Z,99718.06
2022-12-08T11:41:38.532Z,99719.53
2022-12-08T11:44:51.245Z,99706.13
2022-12-08T11:48:16.270Z,99701.88
2022-12-08T11:51:35.465Z,99706.28
2022-12-08T11:54:45.813Z,99713.19
2022-12-08T11:57:49.457Z,99705.44
2022-12-08T12:00:51.855Z,99701.78
2022-12-08T12:04:15.802Z,99701.16
2022-12-08T12:07:42.226Z,99692.75
2022-12-08T12:11:02.649Z,99695.78
2022-12-08T12:14:19.793Z,99700.03
2022-12-08T12:17:46.202Z,99696.72
2022-12-08T12:21:10.314Z,99690.78
2022-12-08T12:24:35.726Z,99694.38
2022-12-08T12:27:40.432Z,99688.19
2022-12-08T12:30:59.975Z,99698.19
2022-12-08T12:34:11.647Z,99675.06
2022-12-08T12:37:17.393Z,99691.63
2022-12-08T12:40:22.250Z,99683.28
2022-12-08T12:43:34.310Z,99685.28
2022-12-08T12:46:53.951Z,99675.28
2022-12-08T12:50:06.828Z,99670.25
2022-12-08T12:53:18.337Z,99677.84
2022-12-08T12:56:51.642Z,99676.81
2022-12-08T12:59:55.853Z,99671.84
2022-12-08T13:03:15.110Z,99665.94
2022-12-08T13:06:26.908Z,99666.94
2022-12-08T13:09:30.531Z,99666.16
2022-12-08T13:12:32.819Z,99659.88
2022-12-08T13:15:40.105Z,99659.88
2022-12-08T13:18:53.251Z,99672.63
2022-12-08T13:21:55.761Z,99672.47
2022-12-08T13:25:53.614Z,99675.81
2022-12-08T13:29:03.666Z,99667.00
2022-12-08T13:32:08.831Z,99667.84
2022-12-08T13:35:12.548Z,99665.72
2022-12-08T13:38:18.445Z,99663.41
2022-12-08T13:41:23.791Z,99671.41
2022-12-08T13:45:18.682Z,99686.63
2022-12-08T13:48:58.984Z,99680.66
2022-12-08T13:56:30.709Z,99688.91
2022-12-08T13:58:36.744Z,99684.34
2022-12-08T14:01:46.824Z,99686.81
2022-12-08T14:08:58.915Z,99681.25
2022-12-08T14:12:06.742Z,99685.56
2022-12-08T14:15:12.239Z,99672.59
2022-12-08T14:18:29.247Z,99683.81
2022-12-08T14:21:36.058Z,99679.13
2022-12-08T14:24:39.513Z,99676.72
2022-12-08T14:27:42.076Z,99693.44
2022-12-08T14:30:44.684Z,99693.44
2022-12-08T14:33:51.785Z,99691.34
2022-12-08T14:36:57.184Z,99690.78
2022-12-08T14:40:03.913Z,99682.94
2022-12-08T14:43:09.137Z,99696.56
2022-12-08T14:46:23.543Z,99682.34
2022-12-08T14:49:34.196Z,99685.25
2022-12-08T14:52:43.722Z,99682.22
2022-12-08T14:55:48.037Z,99680.59
2022-12-08T14:59:03.282Z,99680.81
2022-12-08T15:02:24.282Z,99681.69
2022-12-08T15:05:30.177Z,99669.97
2022-12-08T15:08:33.145Z,99694.03
2022-12-08T15:11:36.314Z,99694.28
2022-12-08T15:14:42.109Z,99691.59
2022-12-08T15:17:50.097Z,99687.31
2022-12-08T15:20:54.570Z,99686.75
2022-12-08T15:23:56.851Z,99682.81
2022-12-08T15:26:59.311Z,99683.53
2022-12-08T15:30:01.663Z,99680.94
2022-12-08T15:33:04.099Z,99669.72
2022-12-08T15:36:06.770Z,99682.66
2022-12-08T15:39:33.271Z,99682.69
2022-12-08T15:42:35.655Z,99668.91
2022-12-08T15:45:40.713Z,99676.72
2022-12-08T15:48:47.191Z,99672.88
2022-12-08T15:51:50.321Z,99664.34
2022-12-08T15:54:52.686Z,99670.53
2022-12-08T16:01:17.418Z,99684.56
2022-12-08T16:05:11.685Z,99682.72
2022-12-08T16:07:44.037Z,99683.19
2022-12-08T16:11:29.283Z,99674.19
2022-12-08T16:14:47.423Z,99675.28
2022-12-08T16:17:32.744Z,99675.03
2022-12-08T16:21:06.118Z,99670.00
2022-12-08T16:23:57.363Z,99670.25
2022-12-08T16:30:22.397Z,99677.38
2022-12-08T16:33:24.719Z,99667.78
2022-12-08T16:36:26.984Z,99668.38
2022-12-08T16:39:29.351Z,99662.53
2022-12-08T16:42:50.388Z,99656.91
2022-12-08T16:45:52.992Z,99667.91
2022-12-08T16:48:58.171Z,99658.91
2022-12-08T16:52:00.440Z,99666.50
2022-12-08T16:55:03.406Z,99638.84
2022-12-08T16:58:06.586Z,99673.50
2022-12-08T17:01:16.844Z,99662.28
2022-12-08T17:04:34.928Z,99652.13
2022-12-08T17:07:37.424Z,99645.94
2022-12-08T17:10:41.231Z,99641.41
2022-12-08T17:13:43.601Z,99635.19
2022-12-08T17:16:46.366Z,99646.41
2022-12-08T17:19:48.878Z,99646.88
2022-12-08T17:22:58.320Z,99659.25
2022-12-08T17:26:01.545Z,99647.91
2022-12-08T17:29:05.095Z,99648.44
2022-12-08T17:32:07.586Z,99650.72
2022-12-08T17:35:10.805Z,99660.19
2022-12-08T17:38:13.065Z,99654.13
2022-12-08T17:41:15.297Z,99648.44
2022-12-08T17:44:19.742Z,99653.34
2022-12-08T17:47:22.426Z,99644.53
2022-12-08T17:50:24.716Z,99648.03
2022-12-08T17:53:27.082Z,99647.22
2022-12-08T17:56:29.388Z,99642.09
2022-12-08T17:59:32.044Z,99646.78
2022-12-08T18:02:35.719Z,99636.94
2022-12-08T18:05:38.187Z,99639.19
2022-12-08T18:08:41.053Z,99641.50
2022-12-08T18:11:43.776Z,99636.16
2022-12-08T18:14:46.583Z,99631.50
2022-12-08T18:17:48.914Z,99631.72
2022-12-08T18:20:51.336Z,99623.91
2022-12-08T18:23:54.024Z,99625.63
2022-12-08T18:26:57.849Z,99621.56
2022-12-08T18:30:00.634Z,99624.00
2022-12-08T18:33:06.218Z,99626.56
2022-12-08T18:36:16.811Z,99617.56
2022-12-08T18:39:29.312Z,99622.59
2022-12-08T18:42:31.946Z,99610.56
2022-12-08T18:45:36.867Z,99617.91
2022-12-08T18:48:44.586Z,99608.81
2022-12-08T18:51:47.497Z,99608.59
2022-12-08T18:55:05.695Z,99598.16
2022-12-08T18:58:10.992Z,99604.13
2022-12-08T19:01:16.767Z,99597.69
2022-12-08T19:04:38.455Z,99616.06
2022-12-08T19:07:42.827Z,99610.47
2022-12-08T19:10:45.168Z,99604.69
2022-12-08T19:13:47.582Z,99602.16
2022-12-08T19:16:50.717Z,99613.00
2022-12-08T19:19:53.075Z,99611.72
2022-12-08T19:22:55.579Z,99612.16
2022-12-08T19:25:57.958Z,99619.13
2022-12-08T19:29:00.352Z,99618.97
2022-12-08T19:32:05.186Z,99627.94
2022-12-08T19:35:08.021Z,99625.25
2022-12-08T19:38:10.362Z,99629.56
2022-12-08T19:41:31.405Z,99634.94
2022-12-08T19:44:52.294Z,99642.53
2022-12-08T19:47:54.638Z,99646.88
2022-12-08T19:50:57.417Z,99650.75
2022-12-08T19:53:59.693Z,99651.44
2022-12-08T19:57:02.296Z,99648.28
2022-12-08T20:00:05.250Z,99656.00
2022-12-08T20:03:15.522Z,99652.69
2022-12-08T20:06:18.879Z,99661.75
2022-12-08T20:09:21.621Z,99656.16
2022-12-08T20:12:23.942Z,99657.25
2022-12-08T20:15:26.278Z,99662.22
2022-12-08T20:18:28.904Z,99665.03
2022-12-08T20:21:31.338Z,99672.06
2022-12-08T20:24:33.699Z,99670.25
2022-12-08T20:27:36.019Z,99662.06
2022-12-08T20:30:39.601Z,99676.28
2022-12-08T20:33:42.000Z,99678.16
2022-12-08T20:36:44.907Z,99678.88
2022-12-08T20:39:47.270Z,99668.19
2022-12-08T20:42:49.633Z,99675.47
2022-12-08T20:45:52.035Z,99677.56
2022-12-08T20:48:57.904Z,99679.06
2022-12-08T20:52:00.221Z,99678.59
2022-12-08T20:55:03.013Z,99679.72
2022-12-08T20:58:05.523Z,99682.03
2022-12-08T21:01:12.393Z,99690.75
2022-12-08T21:04:15.066Z,99688.84
2022-12-08T21:07:17.814Z,99686.97
2022-12-08T21:10:20.382Z,99695.28
2022-12-08T21:13:22.782Z,99685.00
2022-12-08T21:16:25.581Z,99705.16
2022-12-08T21:19:28.019Z,99714.06
2022-12-08T21:22:30.920Z,99706.44
2022-12-08T21:25:33.336Z,99704.06
2022-12-08T21:28:35.841Z,99709.47
2022-12-08T21:31:38.690Z,99711.94
2022-12-08T21:34:41.298Z,99721.81
2022-12-08T21:37:43.841Z,99720.66
2022-12-08T21:40:46.320Z,99726.31
2022-12-08T21:43:48.758Z,99716.47
2022-12-08T21:46:51.301Z,99715.19
2022-12-08T21:49:54.811Z,99727.34
2022-12-08T21:52:57.423Z,99716.16
2022-12-08T21:55:59.825Z,99721.31
2022-12-08T21:59:02.181Z,99726.47
2022-12-08T22:02:04.524Z,99723.94
2022-12-08T22:05:07.490Z,99724.75
2022-12-08T22:08:10.157Z,99722.53
2022-12-08T22:11:13.316Z,99721.38
2022-12-08T22:14:15.900Z,99731.00
2022-12-08T22:17:18.732Z,99738.97
2022-12-08T22:20:21.614Z,99728.91
2022-12-08T22:23:24.358Z,99729.41
2022-12-08T22:26:27.044Z,99719.63
2022-12-08T22:29:29.773Z,99713.97
2022-12-08T22:32:32.744Z,99739.34
2022-12-08T22:35:35.391Z,99743.31
2022-12-08T22:38:37.896Z,99739.78
2022-12-08T22:41:40.620Z,99745.72
2022-12-08T22:44:43.193Z,99753.81
2022-12-08T22:47:45.560Z,99757.69
2022-12-08T22:50:48.170Z,99743.75
2022-12-08T22:53:50.981Z,99733.50
2022-12-08T22:56:53.504Z,99738.06
2022-12-08T22:59:55.913Z,99734.00
2022-12-08T23:02:58.298Z,99732.91
2022-12-08T23:06:01.483Z,99734.13
2022-12-08T23:09:04.292Z,99744.00
2022-12-08T23:12:07.026Z,99755.09
2022-12-08T23:15:10.062Z,99755.63
2022-12-08T23:18:19.115Z,99756.50
2022-12-08T23:21:22.333Z,99742.81
2022-12-08T23:24:24.679Z,99748.19
2022-12-08T23:27:26.941Z,99748.16
2022-12-08T23:30:29.482Z,99762.66
2022-12-08T23:33:32.172Z,99744.97
2022-12-08T23:36:34.783Z,99744.88
2022-12-08T23:39:37.401Z,99735.94
2022-12-08T23:42:40.177Z,99740.31
2022-12-08T23:45:42.918Z,99752.31
2022-12-08T23:48:45.606Z,99748.78
2022-12-08T23:51:48.222Z,99758.44
2022-12-08T23:54:51.220Z,99757.25
2022-12-08T23:57:53.576Z,99752.19
